createdAt,value
2023-02-25T00:05:03.517Z,9.00
2023-02-25T00:07:29.841Z,3.00
2023-02-25T00:09:58.169Z,8.00
2023-02-25T00:12:25.392Z,6.25
2023-02-25T00:14:51.788Z,6.67
2023-02-25T00:20:14.129Z,6.00
2023-02-25T00:22:40.469Z,6.00
2023-02-25T00:25:06.820Z,5.67
2023-02-25T00:27:33.275Z,5.33
2023-02-25T00:29:59.676Z,6.67
2023-02-25T00:35:10.618Z,5.00
2023-02-25T00:37:36.961Z,5.00
2023-02-25T00:40:04.194Z,6.00
2023-02-25T00:42:30.517Z,4.67
2023-02-25T00:44:56.866Z,5.00
2023-02-25T00:50:07.330Z,4.33
2023-02-25T00:52:33.653Z,6.00
2023-02-25T00:55:00.086Z,5.00
2023-02-25T00:57:26.446Z,5.00
2023-02-25T00:59:52.831Z,6.00
2023-02-25T01:05:13.281Z,5.00
2023-02-25T01:07:39.747Z,4.00
2023-02-25T01:10:06.140Z,5.00
2023-02-25T01:12:32.733Z,5.00
2023-02-25T01:14:59.061Z,4.00
2023-02-25T01:20:19.102Z,5.00
2023-02-25T01:22:45.481Z,5.00
2023-02-25T01:25:11.840Z,5.00
2023-02-25T01:27:38.185Z,5.33
2023-02-25T01:30:04.575Z,5.33
2023-02-25T01:35:14.902Z,5.00
2023-02-25T01:37:41.336Z,4.00
2023-02-25T01:40:07.718Z,4.33
2023-02-25T01:42:34.084Z,4.00
2023-02-25T01:45:00.425Z,4.33
2023-02-25T01:47:26.757Z,4.00
2023-02-25T01:49:53.088Z,4.00
2023-02-25T01:52:19.425Z,3.33
2023-02-25T01:54:45.762Z,4.00
2023-02-25T01:57:12.109Z,4.67
2023-02-25T01:59:38.487Z,4.33
2023-02-25T02:02:04.872Z,4.00
2023-02-25T02:04:31.268Z,4.00
2023-02-25T02:06:57.597Z,4.00
2023-02-25T02:09:23.994Z,3.00
2023-02-25T02:11:50.361Z,4.00
2023-02-25T02:14:16.758Z,4.00
2023-02-25T02:16:43.143Z,4.00
2023-02-25T02:19:09.515Z,4.00
2023-02-25T02:21:35.854Z,3.33
2023-02-25T02:24:02.194Z,4.00
2023-02-25T02:26:28.747Z,3.67
2023-02-25T02:28:55.071Z,4.33
2023-02-25T02:31:21.520Z,3.67
2023-02-25T02:33:47.895Z,4.00
2023-02-25T02:36:14.244Z,4.33
2023-02-25T02:38:40.569Z,3.00
2023-02-25T02:41:06.945Z,3.00
2023-02-25T02:43:33.277Z,4.00
2023-02-25T02:45:59.606Z,2.00
2023-02-25T02:48:25.995Z,3.00
2023-02-25T02:53:39.215Z,2.67
2023-02-25T02:56:05.579Z,2.67
2023-02-25T02:58:31.931Z,1.00
2023-02-25T03:00:58.367Z,3.33
2023-02-25T03:03:24.779Z,3.00
2023-02-25T03:08:44.913Z,3.67
2023-02-25T03:11:11.274Z,2.67
2023-02-25T03:13:37.630Z,2.33
2023-02-25T03:16:03.991Z,2.00
2023-02-25T03:18:30.294Z,2.00
2023-02-25T03:23:50.404Z,2.67
2023-02-25T03:26:16.787Z,3.00
2023-02-25T03:28:43.145Z,4.00
2023-02-25T03:31:09.585Z,3.00
2023-02-25T03:33:35.976Z,3.33
2023-02-25T03:38:46.428Z,3.00
2023-02-25T03:41:12.762Z,2.67
2023-02-25T03:43:39.111Z,2.33
2023-02-25T03:46:05.495Z,3.00
2023-02-25T03:48:31.941Z,3.67
2023-02-25T03:53:41.978Z,2.00
2023-02-25T03:56:08.325Z,3.00
2023-02-25T03:58:34.668Z,3.00
2023-02-25T04:01:00.992Z,2.67
2023-02-25T04:03:27.354Z,3.00
2023-02-25T04:08:37.277Z,3.00
2023-02-25T04:11:06.397Z,2.83
2023-02-25T04:13:32.758Z,3.00
2023-02-25T04:15:59.227Z,2.00
2023-02-25T04:18:25.659Z,2.00
2023-02-25T04:23:45.682Z,3.00
2023-02-25T04:26:12.929Z,2.25
2023-02-25T04:28:39.238Z,2.33
2023-02-25T04:31:05.674Z,3.67
2023-02-25T04:33:32.076Z,2.33
2023-02-25T04:38:42.299Z,2.00
2023-02-25T04:41:08.633Z,2.00
2023-02-25T04:43:34.981Z,3.00
2023-02-25T04:46:01.323Z,2.33
2023-02-25T04:48:27.680Z,2.00
2023-02-25T04:53:47.882Z,2.33
2023-02-25T04:56:14.248Z,2.00
2023-02-25T04:58:40.598Z,2.67
2023-02-25T05:01:07.021Z,3.00
2023-02-25T05:03:33.337Z,2.00
2023-02-25T05:08:43.419Z,2.00
2023-02-25T05:11:09.776Z,2.00
2023-02-25T05:13:36.135Z,2.00
2023-02-25T05:16:02.486Z,2.00
2023-02-25T05:18:28.905Z,2.00
2023-02-25T05:20:55.222Z,1.00
2023-02-25T05:23:21.567Z,2.67
2023-02-25T05:25:47.942Z,3.33
2023-02-25T05:28:14.277Z,2.00
2023-02-25T05:30:40.642Z,2.00
2023-02-25T05:33:07.076Z,1.67
2023-02-25T05:35:33.470Z,2.00
2023-02-25T05:37:59.803Z,1.67
2023-02-25T05:40:26.112Z,2.00
2023-02-25T05:42:52.493Z,2.00
2023-02-25T05:45:18.803Z,2.00
2023-02-25T05:47:45.157Z,3.00
2023-02-25T05:50:13.383Z,3.00
2023-02-25T05:52:39.702Z,2.33
2023-02-25T05:55:06.041Z,1.00
2023-02-25T05:57:32.341Z,2.00
2023-02-25T05:59:58.753Z,2.00
2023-02-25T06:02:25.244Z,2.00
2023-02-25T06:04:51.627Z,2.00
2023-02-25T06:07:17.971Z,2.00
2023-02-25T06:09:44.403Z,2.00
2023-02-25T06:12:10.780Z,3.00
2023-02-25T06:14:37.117Z,1.33
2023-02-25T06:17:03.880Z,3.00
2023-02-25T06:19:30.205Z,1.00
2023-02-25T06:21:56.539Z,2.00
2023-02-25T06:27:16.794Z,2.33
2023-02-25T06:29:52.932Z,0.00
2023-02-25T06:32:19.354Z,2.33
2023-02-25T06:34:45.728Z,2.00
2023-02-25T06:37:16.239Z,2.00
2023-02-25T06:42:26.798Z,2.00
2023-02-25T06:44:55.885Z,1.00
2023-02-25T06:47:25.047Z,2.17
2023-02-25T06:49:52.440Z,15.33
2023-02-25T06:52:19.118Z,17.00
2023-02-25T06:57:41.411Z,11.67
2023-02-25T07:00:08.782Z,11.33
2023-02-25T07:02:35.252Z,11.00
2023-02-25T07:05:01.735Z,10.00
2023-02-25T07:07:28.191Z,10.00
2023-02-25T07:12:39.558Z,7.00
2023-02-25T07:15:06.785Z,7.75
2023-02-25T07:17:33.203Z,10.00
2023-02-25T07:20:00.437Z,7.00
2023-02-25T07:22:26.824Z,5.00
2023-02-25T07:27:39.781Z,6.50
2023-02-25T07:30:09.172Z,8.50
2023-02-25T07:32:35.703Z,5.00
2023-02-25T07:35:02.333Z,6.00
2023-02-25T07:37:28.680Z,5.00
2023-02-25T07:42:49.122Z,6.00
2023-02-25T07:45:17.432Z,6.00
2023-02-25T07:47:43.788Z,6.00
2023-02-25T07:50:12.689Z,4.00
2023-02-25T07:52:40.321Z,5.67
2023-02-25T07:57:50.672Z,6.00
2023-02-25T08:00:17.144Z,29.00
2023-02-25T08:02:43.715Z,24.00
2023-02-25T08:05:11.093Z,15.00
2023-02-25T08:07:38.494Z,20.00
2023-02-25T08:12:59.763Z,13.33
2023-02-25T08:15:27.214Z,16.67
2023-02-25T08:17:53.677Z,13.00
2023-02-25T08:20:23.621Z,9.86
2023-02-25T08:22:50.857Z,11.33
2023-02-25T08:28:01.983Z,10.67
2023-02-25T08:30:29.223Z,11.67
2023-02-25T08:32:58.503Z,8.50
2023-02-25T08:35:24.950Z,10.50
2023-02-25T08:37:51.355Z,9.00
2023-02-25T08:43:12.390Z,9.67
2023-02-25T08:45:38.840Z,9.00
2023-02-25T08:48:05.260Z,7.00
2023-02-25T08:50:31.795Z,10.00
2023-02-25T08:53:00.134Z,10.20
2023-02-25T08:58:13.387Z,11.00
2023-02-25T09:00:40.777Z,9.33
2023-02-25T09:03:09.147Z,9.60
2023-02-25T09:05:37.428Z,11.00
2023-02-25T09:08:03.972Z,10.00
2023-02-25T09:13:19.023Z,8.80
2023-02-25T09:15:45.410Z,7.67
2023-02-25T09:18:12.641Z,7.00
2023-02-25T09:20:40.834Z,7.50
2023-02-25T09:23:08.084Z,7.75
2023-02-25T09:28:29.126Z,5.00
2023-02-25T09:30:56.427Z,7.50
2023-02-25T09:33:23.695Z,6.50
2023-02-25T09:35:50.032Z,6.00
2023-02-25T09:38:16.379Z,5.00
2023-02-25T09:43:27.558Z,5.00
2023-02-25T09:45:54.017Z,6.00
2023-02-25T09:48:21.276Z,6.75
2023-02-25T09:50:47.628Z,5.00
2023-02-25T09:53:14.866Z,5.75
2023-02-25T09:58:25.033Z,5.00
2023-02-25T10:00:51.361Z,4.33
2023-02-25T10:03:17.906Z,5.00
2023-02-25T10:05:44.278Z,5.00
2023-02-25T10:08:10.646Z,5.33
2023-02-25T10:10:37.003Z,4.67
2023-02-25T10:13:03.345Z,5.67
2023-02-25T10:15:29.699Z,6.00
2023-02-25T10:17:56.016Z,5.33
2023-02-25T10:20:22.401Z,5.00
2023-02-25T10:22:48.720Z,4.33
2023-02-25T10:25:15.214Z,5.67
2023-02-25T10:27:41.589Z,4.00
2023-02-25T10:30:07.996Z,4.67
2023-02-25T10:32:34.372Z,5.67
2023-02-25T10:35:00.785Z,6.00
2023-02-25T10:37:27.279Z,4.33
2023-02-25T10:39:53.638Z,5.00
2023-02-25T10:42:20.850Z,4.75
2023-02-25T10:44:48.342Z,2.67
2023-02-25T10:47:18.433Z,4.00
2023-02-25T10:49:44.763Z,4.67
2023-02-25T10:52:11.145Z,5.67
2023-02-25T10:54:37.496Z,4.33
2023-02-25T10:57:03.945Z,5.00
2023-02-25T10:59:31.443Z,5.00
2023-02-25T11:01:58.074Z,3.33
2023-02-25T11:04:24.421Z,3.00
2023-02-25T11:06:50.793Z,4.33
2023-02-25T11:09:18.008Z,4.25
2023-02-25T11:11:44.338Z,4.00
2023-02-25T11:17:06.584Z,3.33
2023-02-25T11:19:37.440Z,3.67
2023-02-25T11:22:03.813Z,3.00
2023-02-25T11:24:30.235Z,1.33
2023-02-25T11:26:56.566Z,2.67
2023-02-25T11:32:16.914Z,3.33
2023-02-25T11:34:43.331Z,2.33
2023-02-25T11:37:11.769Z,2.33
2023-02-25T11:39:38.115Z,3.33
2023-02-25T11:42:04.472Z,4.00
2023-02-25T11:47:14.631Z,2.33
2023-02-25T11:49:42.602Z,2.33
2023-02-25T11:52:09.270Z,2.67
2023-02-25T11:54:35.631Z,3.33
2023-02-25T11:57:01.979Z,3.67
2023-02-25T12:02:14.924Z,3.00
2023-02-25T12:04:41.333Z,2.33
2023-02-25T12:07:07.672Z,1.33
2023-02-25T12:09:34.033Z,2.67
2023-02-25T12:12:00.382Z,2.00
2023-02-25T12:17:20.634Z,1.67
2023-02-25T12:19:47.129Z,2.33
2023-02-25T12:22:14.337Z,1.75
2023-02-25T12:24:40.686Z,1.33
2023-02-25T12:27:07.054Z,2.67
2023-02-25T12:32:17.168Z,3.00
2023-02-25T12:34:43.514Z,1.33
2023-02-25T12:37:09.855Z,2.67
2023-02-25T12:39:36.190Z,1.67
2023-02-25T12:42:02.509Z,2.00
2023-02-25T12:47:15.424Z,1.00
2023-02-25T12:49:41.748Z,1.00
2023-02-25T12:52:08.132Z,1.33
2023-02-25T12:54:34.447Z,0.67
2023-02-25T12:57:00.833Z,2.00
2023-02-25T13:02:11.268Z,0.33
2023-02-25T13:04:40.381Z,1.00
2023-02-25T13:07:06.744Z,0.67
2023-02-25T13:09:33.104Z,0.33
2023-02-25T13:12:11.530Z,1.00
2023-02-25T13:17:32.201Z,1.33
2023-02-25T13:19:58.545Z,0.67
2023-02-25T13:22:24.932Z,1.00
2023-02-25T13:24:51.270Z,0.67
2023-02-25T13:27:17.598Z,1.00
2023-02-25T13:32:37.982Z,2.00
2023-02-25T13:35:04.558Z,1.67
2023-02-25T13:37:30.871Z,1.00
2023-02-25T13:39:57.179Z,1.00
2023-02-25T13:42:23.537Z,1.00
2023-02-25T13:47:36.812Z,0.67
2023-02-25T13:50:03.107Z,0.00
2023-02-25T13:52:29.491Z,1.00
2023-02-25T13:54:55.811Z,1.00
2023-02-25T13:57:24.964Z,1.00
2023-02-25T14:02:37.932Z,0.33
2023-02-25T14:05:04.308Z,1.33
2023-02-25T14:07:30.648Z,1.33
2023-02-25T14:09:56.940Z,2.00
2023-02-25T14:12:23.275Z,1.67
2023-02-25T14:17:43.315Z,1.33
2023-02-25T14:20:09.698Z,2.00
2023-02-25T14:22:36.248Z,2.00
2023-02-25T14:25:02.644Z,2.00
2023-02-25T14:27:28.991Z,2.00
2023-02-25T14:29:55.303Z,0.00
2023-02-25T14:32:21.726Z,1.00
2023-02-25T14:34:48.146Z,1.00
2023-02-25T14:37:14.549Z,2.00
2023-02-25T14:39:40.874Z,2.00
2023-02-25T14:42:07.217Z,1.33
2023-02-25T14:44:33.545Z,2.00
2023-02-25T14:46:59.858Z,2.00
2023-02-25T14:49:26.837Z,1.33
2023-02-25T14:51:53.255Z,2.00
2023-02-25T14:54:19.795Z,2.00
2023-02-25T14:56:46.174Z,3.00
2023-02-25T14:59:12.528Z,3.00
2023-02-25T15:01:38.937Z,2.00
2023-02-25T15:04:05.494Z,3.00
2023-02-25T15:06:31.864Z,2.00
2023-02-25T15:08:58.194Z,1.33
2023-02-25T15:11:24.845Z,2.00
2023-02-25T15:13:51.405Z,2.00
2023-02-25T15:16:17.836Z,3.00
2023-02-25T15:18:44.238Z,3.00
2023-02-25T15:21:10.612Z,3.00
2023-02-25T15:23:36.938Z,1.67
2023-02-25T15:26:03.298Z,4.00
2023-02-25T15:28:29.666Z,3.00
2023-02-25T15:30:56.140Z,3.00
2023-02-25T15:33:22.521Z,3.67
2023-02-25T15:35:48.831Z,2.33
2023-02-25T15:38:15.214Z,4.00
2023-02-25T15:40:41.549Z,3.33
2023-02-25T15:43:07.882Z,3.00
2023-02-25T15:45:34.225Z,2.00
2023-02-25T15:50:54.281Z,2.33
2023-02-25T15:53:20.645Z,3.00
2023-02-25T15:55:46.956Z,3.00
2023-02-25T15:58:13.343Z,3.33
2023-02-25T16:00:39.769Z,3.33
2023-02-25T16:05:49.651Z,3.00
2023-02-25T16:08:16.008Z,3.00
2023-02-25T16:10:42.367Z,3.33
2023-02-25T16:13:09.578Z,2.25
2023-02-25T16:15:35.927Z,3.33
2023-02-25T16:20:46.494Z,3.00
2023-02-25T16:23:12.882Z,3.33
2023-02-25T16:25:39.390Z,2.00
2023-02-25T16:28:05.749Z,3.00
2023-02-25T16:30:32.069Z,4.00
2023-02-25T16:35:57.541Z,2.33
2023-02-25T16:38:26.384Z,3.00
2023-02-25T16:40:52.811Z,3.00
2023-02-25T16:43:19.202Z,3.67
2023-02-25T16:45:45.571Z,3.33
2023-02-25T16:51:05.816Z,3.00
2023-02-25T16:53:32.136Z,0.00
2023-02-25T16:55:58.478Z,4.00
2023-02-25T16:58:24.844Z,2.33
2023-02-25T17:00:51.257Z,2.33
2023-02-25T17:06:12.527Z,2.00
2023-02-25T17:08:39.052Z,3.00
2023-02-25T17:11:05.451Z,3.33
2023-02-25T17:13:31.798Z,1.33
2023-02-25T17:15:58.129Z,2.00
2023-02-25T17:21:08.454Z,5.00
2023-02-25T17:23:34.818Z,3.00
2023-02-25T17:26:01.163Z,2.00
2023-02-25T17:28:27.528Z,2.00
2023-02-25T17:30:53.997Z,2.00
2023-02-25T17:36:04.393Z,1.33
2023-02-25T17:38:30.755Z,0.33
2023-02-25T17:40:57.223Z,2.33
2023-02-25T17:43:23.564Z,1.67
2023-02-25T17:45:49.976Z,2.00
2023-02-25T17:51:10.422Z,1.00
2023-02-25T17:53:36.793Z,1.33
2023-02-25T17:56:03.168Z,1.33
2023-02-25T17:58:30.611Z,18.00
2023-02-25T18:00:58.176Z,12.67
2023-02-25T18:06:11.168Z,5.00
2023-02-25T18:08:37.637Z,22.00
2023-02-25T18:11:05.040Z,13.33
2023-02-25T18:13:31.544Z,8.00
2023-02-25T18:16:01.064Z,7.67
2023-02-25T18:18:27.553Z,7.67
2023-02-25T18:20:54.772Z,7.00
2023-02-25T18:23:21.156Z,5.00
2023-02-25T18:25:47.502Z,5.33
2023-02-25T18:28:13.894Z,5.00
2023-02-25T18:30:40.302Z,3.67
2023-02-25T18:33:06.734Z,3.67
2023-02-25T18:35:33.084Z,3.00
2023-02-25T18:37:59.446Z,3.00
2023-02-25T18:40:25.774Z,2.33
2023-02-25T18:42:52.179Z,4.00
2023-02-25T18:45:19.920Z,4.00
2023-02-25T18:47:46.288Z,3.33
2023-02-25T18:50:12.659Z,3.33
2023-02-25T18:52:39.012Z,4.00
2023-02-25T18:55:05.437Z,3.33
2023-02-25T18:57:31.833Z,3.00
2023-02-25T18:59:58.230Z,3.67
2023-02-25T19:02:24.992Z,3.67
2023-02-25T19:04:51.368Z,4.00
2023-02-25T19:07:17.736Z,3.00
2023-02-25T19:09:44.100Z,3.67
2023-02-25T19:12:10.483Z,4.00
2023-02-25T19:14:36.904Z,3.00
2023-02-25T19:17:03.266Z,4.00
2023-02-25T19:19:29.612Z,4.33
2023-02-25T19:21:55.988Z,4.00
2023-02-25T19:24:22.511Z,3.00
2023-02-25T19:26:48.870Z,2.00
2023-02-25T19:29:15.212Z,3.33
2023-02-25T19:31:41.648Z,3.33
2023-02-25T19:34:08.014Z,4.00
2023-02-25T19:39:28.364Z,3.33
2023-02-25T19:41:55.076Z,2.33
2023-02-25T19:44:21.417Z,2.33
2023-02-25T19:46:47.833Z,2.00
2023-02-25T19:49:14.282Z,4.33
2023-02-25T19:54:25.980Z,4.00
2023-02-25T19:56:52.819Z,3.00
2023-02-25T19:59:19.169Z,4.00
2023-02-25T20:01:45.548Z,4.00
2023-02-25T20:04:12.768Z,4.00
2023-02-25T20:09:33.185Z,5.00
2023-02-25T20:11:59.529Z,4.67
2023-02-25T20:14:25.907Z,2.67
2023-02-25T20:16:52.698Z,4.00
2023-02-25T20:19:19.118Z,3.67
2023-02-25T20:24:29.279Z,3.67
2023-02-25T20:26:55.657Z,4.00
2023-02-25T20:29:22.004Z,3.00
2023-02-25T20:31:48.478Z,3.00
2023-02-25T20:34:15.902Z,3.00
2023-02-25T20:39:26.379Z,5.00
2023-02-25T20:41:52.748Z,3.00
2023-02-25T20:44:19.261Z,3.33
2023-02-25T20:46:45.643Z,3.00
2023-02-25T20:49:12.000Z,3.00
2023-02-25T20:54:32.161Z,3.00
2023-02-25T20:56:58.678Z,3.00
2023-02-25T20:59:25.043Z,3.00
2023-02-25T21:01:54.181Z,2.83
2023-02-25T21:04:20.699Z,3.00
2023-02-25T21:09:30.915Z,2.33
2023-02-25T21:11:57.251Z,1.00
2023-02-25T21:14:23.563Z,2.00
2023-02-25T21:16:49.945Z,2.00
2023-02-25T21:19:16.825Z,2.00
2023-02-25T21:24:37.389Z,2.00
2023-02-25T21:27:03.902Z,2.33
2023-02-25T21:29:30.223Z,2.00
2023-02-25T21:31:56.605Z,1.00
2023-02-25T21:34:22.976Z,1.67
2023-02-25T21:39:33.566Z,1.33
2023-02-25T21:42:00.187Z,1.33
2023-02-25T21:44:26.548Z,2.00
2023-02-25T21:46:52.896Z,2.00
2023-02-25T21:49:19.543Z,2.00
2023-02-25T21:51:45.897Z,2.00
2023-02-25T21:54:12.230Z,2.67
2023-02-25T21:56:38.738Z,1.67
2023-02-25T21:59:05.066Z,0.00
2023-02-25T22:01:31.512Z,1.33
2023-02-25T22:03:57.959Z,1.67
2023-02-25T22:06:24.848Z,2.00
2023-02-25T22:08:51.531Z,2.00
2023-02-25T22:11:17.857Z,2.00
2023-02-25T22:13:46.954Z,1.00
2023-02-25T22:16:13.345Z,1.00
2023-02-25T22:18:39.727Z,2.00
2023-02-25T22:21:06.158Z,2.00
2023-02-25T22:23:32.481Z,1.00
2023-02-25T22:25:59.814Z,19.00
2023-02-25T22:28:27.132Z,12.67
2023-02-25T22:30:53.726Z,20.50
2023-02-25T22:33:21.168Z,24.00
2023-02-25T22:35:48.591Z,18.00
2023-02-25T22:38:15.148Z,14.00
2023-02-25T22:40:43.432Z,7.80
2023-02-25T22:43:11.743Z,11.20
2023-02-25T22:45:40.044Z,7.00
2023-02-25T22:48:06.406Z,5.00
2023-02-25T22:50:32.753Z,6.00
2023-02-25T22:52:59.124Z,5.00
2023-02-25T22:55:25.558Z,5.67
2023-02-25T22:57:51.890Z,5.00
2023-02-25T23:00:19.111Z,4.00
2023-02-25T23:02:45.503Z,4.33
2023-02-25T23:05:12.744Z,4.00
2023-02-25T23:07:39.105Z,4.00
2023-02-25T23:12:49.356Z,3.00
2023-02-25T23:15:15.708Z,3.00
2023-02-25T23:17:42.053Z,2.00
2023-02-25T23:20:08.434Z,3.67
2023-02-25T23:22:35.126Z,2.67
2023-02-25T23:27:45.565Z,2.00
2023-02-25T23:30:14.669Z,0.33
2023-02-25T23:32:41.033Z,1.67
2023-02-25T23:35:07.393Z,2.33
2023-02-25T23:37:33.711Z,2.00
2023-02-25T23:42:53.880Z,1.33
2023-02-25T23:45:20.264Z,2.00
2023-02-25T23:47:46.602Z,2.00
2023-02-25T23:50:13.808Z,1.00
2023-02-25T23:52:40.159Z,1.67
2023-02-25T23:57:49.983Z,2.00
